Pagina principală
METAR-TAF:

METAR-TAF

Aeroporturi :

Curitiba, Paraná, Brazilia

Latitudine: 25-31S, longitudine: 049-10W, elevație: 908 m

Observații meteo curente

Raportul a fost făcut în urmă cu 1 oră și 21 de minute, la 12:00 UTC
Vânt calm
Temperatură 18°C
Umiditate 77%
Presiune 1024 hPa
Vizibilitate de 10 km sau mai mult
nu există nori sub 1.500 m și nici cumulonimbus

METAR: SBCT 151200Z 00000KT CAVOK 18/14 Q1024

Ora: 10:21 (13:21 UTC)

Prognoză

Raportul a fost făcut în urmă cu 4 ore și 21 de minute, la 09:00 UTC
Prognoză valabilă de la 15 ora 12 UTC la 16 ora 12 UTC
Vânt 7 kt de la Nord/Nord-vest
Vizibilitate de 10 km sau mai mult
nu există nori sub 1.500 m și nici cumulonimbus

TAF: SBCT 150900Z 1512/1612 34007KT CAVOK TX25/1518Z TN14/1608Z RMK PFR

Observații și prognoze meteo pentru peste 4.000 de aeroporturi (rapoarte METAR și TAF).

Stațiile disponibile sunt reprezentate pe hartă prin puncte galbene și roșii.

Țineți indicatorul mouse-ului pe punctul dorit pentru a vedea denumirea stației.

Apoi, faceți clic pentru a vedea observațiile și prognozele meteorologice.

Pentru a schimba harta: Pentru mărire, faceți clic pe butoanele verzi cu cruce neagră; pentru micșorare, pe butonul verde cu o liniuță; pentru hărți învecinate, pe săgețile verzi.


METAR-TAF: